createdAt,value
2022-12-01T00:01:35.868Z,102379.00
2022-12-01T00:04:07.453Z,102376.28
2022-12-01T00:06:37.463Z,102380.94
2022-12-01T00:09:25.023Z,102389.34
2022-12-01T00:11:54.774Z,102385.19
2022-12-01T00:14:21.720Z,102379.66
2022-12-01T00:16:54.144Z,102385.84
2022-12-01T00:19:25.753Z,102375.47
2022-12-01T00:21:55.057Z,102380.84
2022-12-01T00:24:25.365Z,102374.38
2022-12-01T00:26:54.736Z,102381.53
2022-12-01T00:29:22.070Z,102379.34
2022-12-01T00:31:49.128Z,102380.88
2022-12-01T00:34:24.498Z,102384.31
2022-12-01T00:36:54.016Z,102392.72
2022-12-01T00:39:21.243Z,102379.34
2022-12-01T00:41:48.234Z,102382.25
2022-12-01T00:44:18.467Z,102385.06
2022-12-01T00:46:45.891Z,102379.69
2022-12-01T00:49:13.841Z,102389.09
2022-12-01T00:51:43.284Z,102381.25
2022-12-01T00:54:10.222Z,102379.09
2022-12-01T00:56:37.323Z,102387.06
2022-12-01T00:59:04.309Z,102394.38
2022-12-01T01:01:31.447Z,102387.22
2022-12-01T01:03:58.815Z,102389.44
2022-12-01T01:06:28.854Z,102393.50
2022-12-01T01:09:01.378Z,102385.56
2022-12-01T01:11:30.429Z,102395.94
2022-12-01T01:14:01.763Z,102398.81
2022-12-01T01:16:31.434Z,102396.63
2022-12-01T01:18:58.714Z,102396.00
2022-12-01T01:21:26.784Z,102388.38
2022-12-01T01:23:55.579Z,102393.41
2022-12-01T01:26:28.596Z,102402.13
2022-12-01T01:29:03.479Z,102406.13
2022-12-01T01:31:33.243Z,102398.03
2022-12-01T01:34:05.879Z,102402.41
2022-12-01T01:36:33.096Z,102408.91
2022-12-01T01:39:01.762Z,102401.84
2022-12-01T01:41:29.039Z,102406.31
2022-12-01T01:44:02.997Z,102406.72
2022-12-01T01:46:34.523Z,102409.44
2022-12-01T01:49:22.571Z,102417.91
2022-12-01T01:51:55.248Z,102409.66
2022-12-01T01:54:51.408Z,102407.16
2022-12-01T01:57:31.257Z,102415.63
2022-12-01T02:00:14.605Z,102402.75
2022-12-01T02:02:44.830Z,102408.50
2022-12-01T02:05:27.582Z,102414.28
2022-12-01T02:07:57.963Z,102417.13
2022-12-01T02:10:56.786Z,102418.78
2022-12-01T02:14:06.176Z,102416.31
2022-12-01T02:16:55.402Z,102421.06
2022-12-01T02:19:43.174Z,102420.00
2022-12-01T02:22:42.895Z,102417.19
2022-12-01T02:26:02.235Z,102421.56
2022-12-01T02:29:02.737Z,102426.56
2022-12-01T02:31:52.112Z,102428.72
2022-12-01T02:34:47.029Z,102423.31
2022-12-01T02:37:32.096Z,102429.97
2022-12-01T02:40:24.003Z,102420.28
2022-12-01T02:43:13.191Z,102430.47
2022-12-01T02:46:11.395Z,102419.09
2022-12-01T02:48:43.100Z,102423.34
2022-12-01T02:51:33.847Z,102424.59
2022-12-01T02:54:03.171Z,102422.91
2022-12-01T02:56:30.102Z,102427.63
2022-12-01T02:58:57.183Z,102418.47
2022-12-01T03:01:39.277Z,102413.84
2022-12-01T03:04:15.415Z,102406.41
2022-12-01T03:06:52.411Z,102411.16
2022-12-01T03:10:06.087Z,102408.13
2022-12-01T03:12:47.488Z,102408.53
2022-12-01T03:15:41.445Z,102416.19
2022-12-01T03:18:32.455Z,102417.94
2022-12-01T03:21:20.084Z,102413.31
2022-12-01T03:24:02.771Z,102411.91
2022-12-01T03:26:37.059Z,102419.09
2022-12-01T03:29:19.132Z,102413.78
2022-12-01T03:31:57.024Z,102402.34
2022-12-01T03:34:26.745Z,102412.13
2022-12-01T03:37:01.353Z,102406.13
2022-12-01T03:39:35.435Z,102410.31
2022-12-01T03:42:16.073Z,102414.50
2022-12-01T03:44:57.760Z,102417.00
2022-12-01T03:47:32.364Z,102409.25
2022-12-01T03:50:00.666Z,102415.22
2022-12-01T03:52:46.859Z,102411.19
2022-12-01T03:55:32.318Z,102417.53
2022-12-01T03:58:44.898Z,102407.66
2022-12-01T04:01:14.581Z,102412.97
2022-12-01T04:03:47.969Z,102422.28
2022-12-01T04:06:18.163Z,102416.13
2022-12-01T04:08:45.256Z,102420.22
2022-12-01T04:11:32.858Z,102425.25
2022-12-01T04:14:03.001Z,102421.38
2022-12-01T04:16:32.412Z,102424.59
2022-12-01T04:18:59.367Z,102431.47
2022-12-01T04:21:28.462Z,102426.56
2022-12-01T04:24:01.602Z,102422.50
2022-12-01T04:26:34.535Z,102425.16
2022-12-01T04:29:07.959Z,102425.00
2022-12-01T04:31:37.543Z,102425.38
2022-12-01T04:34:09.658Z,102422.88
2022-12-01T04:36:36.631Z,102419.78
2022-12-01T04:39:06.309Z,102421.69
2022-12-01T04:41:35.571Z,102424.41
2022-12-01T04:44:05.263Z,102420.50
2022-12-01T04:46:32.305Z,102430.03
2022-12-01T04:48:59.236Z,102429.75
2022-12-01T04:51:31.036Z,102426.16
2022-12-01T04:53:58.086Z,102426.00
2022-12-01T04:56:25.133Z,102436.94
2022-12-01T04:58:52.235Z,102443.13
2022-12-01T05:01:22.703Z,102430.22
2022-12-01T05:03:52.270Z,102440.28
2022-12-01T05:06:23.864Z,102429.97
2022-12-01T05:08:51.958Z,102444.47
2022-12-01T05:11:23.834Z,102435.63
2022-12-01T05:13:51.180Z,102428.00
2022-12-01T05:16:23.316Z,102436.97
2022-12-01T05:19:20.923Z,102435.31
2022-12-01T05:21:51.806Z,102434.25
2022-12-01T05:24:22.888Z,102440.00
2022-12-01T05:26:49.834Z,102442.06
2022-12-01T05:29:19.475Z,102445.69
2022-12-01T05:31:47.353Z,102436.63
2022-12-01T05:34:14.749Z,102444.00
2022-12-01T05:36:42.038Z,102440.56
2022-12-01T05:39:09.433Z,102448.63
2022-12-01T05:41:36.737Z,102452.16
2022-12-01T05:44:04.207Z,102458.50
2022-12-01T05:46:33.611Z,102448.78
2022-12-01T05:49:03.367Z,102442.81
2022-12-01T05:51:33.399Z,102436.16
2022-12-01T05:54:01.952Z,102440.63
2022-12-01T05:56:29.018Z,102445.63
2022-12-01T05:58:56.220Z,102447.59
2022-12-01T06:01:23.376Z,102452.53
2022-12-01T06:03:52.586Z,102458.50
2022-12-01T06:06:20.248Z,102455.38
2022-12-01T06:08:52.821Z,102449.50
2022-12-01T06:11:20.161Z,102463.19
2022-12-01T06:13:47.028Z,102457.72
2022-12-01T06:16:13.992Z,102454.97
2022-12-01T06:18:40.977Z,102466.31
2022-12-01T06:21:08.115Z,102465.97
2022-12-01T06:23:37.483Z,102469.25
2022-12-01T06:26:07.365Z,102476.34
2022-12-01T06:28:34.619Z,102487.56
2022-12-01T06:31:09.037Z,102487.94
2022-12-01T06:33:38.152Z,102489.53
2022-12-01T06:36:07.011Z,102489.59
2022-12-01T06:38:37.786Z,102493.06
2022-12-01T06:41:08.432Z,102492.66
2022-12-01T06:43:38.655Z,102486.31
2022-12-01T06:46:08.692Z,102497.44
2022-12-01T06:48:35.738Z,102499.16
2022-12-01T06:51:03.223Z,102501.06
2022-12-01T06:53:33.066Z,102499.22
2022-12-01T06:56:04.817Z,102497.50
2022-12-01T06:58:34.926Z,102498.47
2022-12-01T07:01:12.160Z,102498.72
2022-12-01T07:03:47.458Z,102490.22
2022-12-01T07:06:14.583Z,102503.94
2022-12-01T07:08:41.624Z,102505.50
2022-12-01T07:11:15.010Z,102504.00
2022-12-01T07:13:45.268Z,102504.44
2022-12-01T07:16:12.775Z,102505.66
2022-12-01T07:18:40.491Z,102505.31
2022-12-01T07:21:13.210Z,102514.31
2022-12-01T07:23:43.094Z,102512.59
2022-12-01T07:26:12.564Z,102509.97
2022-12-01T07:28:39.603Z,102518.59
2022-12-01T07:31:18.744Z,102515.19
2022-12-01T07:33:45.963Z,102510.56
2022-12-01T07:36:13.954Z,102518.09
2022-12-01T07:38:41.662Z,102518.38
2022-12-01T07:41:19.071Z,102519.34
2022-12-01T07:43:49.981Z,102519.25
2022-12-01T07:46:24.218Z,102526.22
2022-12-01T07:48:52.924Z,102520.34
2022-12-01T07:51:24.263Z,102526.25
2022-12-01T07:53:55.098Z,102525.03
2022-12-01T07:56:23.138Z,102523.28
2022-12-01T07:58:52.609Z,102527.09
2022-12-01T08:01:23.839Z,102530.38
2022-12-01T08:03:54.303Z,102521.56
2022-12-01T08:06:22.656Z,102518.97
2022-12-01T08:08:50.241Z,102530.25
2022-12-01T08:11:24.829Z,102531.97
2022-12-01T08:13:54.588Z,102542.56
2022-12-01T08:16:25.809Z,102543.41
2022-12-01T08:18:53.450Z,102539.09
2022-12-01T08:21:23.634Z,102546.66
2022-12-01T08:23:56.533Z,102547.72
2022-12-01T08:26:25.749Z,102549.50
2022-12-01T08:28:52.812Z,102549.03
2022-12-01T08:31:29.016Z,102550.59
2022-12-01T08:33:56.379Z,102552.75
2022-12-01T08:36:26.317Z,102553.88
2022-12-01T08:38:55.855Z,102550.94
2022-12-01T08:41:24.638Z,102557.59
2022-12-01T08:43:59.820Z,102552.34
2022-12-01T08:46:32.410Z,102551.78
2022-12-01T08:49:04.028Z,102547.66
2022-12-01T08:51:33.901Z,102556.41
2022-12-01T08:54:03.372Z,102559.56
2022-12-01T08:56:44.349Z,102558.56
2022-12-01T08:59:11.966Z,102565.59
2022-12-01T09:01:53.571Z,102558.13
2022-12-01T09:04:25.168Z,102561.44
2022-12-01T09:06:54.983Z,102564.72
2022-12-01T09:09:28.447Z,102570.09
2022-12-01T09:11:59.947Z,102571.81
2022-12-01T09:14:29.929Z,102570.78
2022-12-01T09:16:57.093Z,102580.81
2022-12-01T09:19:28.516Z,102573.03
2022-12-01T09:21:55.506Z,102579.44
2022-12-01T09:24:23.114Z,102579.25
2022-12-01T09:26:50.413Z,102580.16
2022-12-01T09:29:17.497Z,102577.34
2022-12-01T09:31:47.218Z,102569.28
2022-12-01T09:34:19.819Z,102569.09
2022-12-01T09:36:47.842Z,102565.88
2022-12-01T09:39:21.188Z,102567.38
2022-12-01T09:42:09.183Z,102573.22
2022-12-01T09:44:39.093Z,102572.63
2022-12-01T09:47:40.118Z,102564.47
2022-12-01T09:50:24.076Z,102573.16
2022-12-01T09:53:08.918Z,102578.19
2022-12-01T09:55:36.273Z,102570.00
2022-12-01T09:58:07.290Z,102571.97
2022-12-01T10:00:44.016Z,102570.72
2022-12-01T10:03:36.451Z,102566.13
2022-12-01T10:06:28.499Z,102565.50
2022-12-01T10:09:30.147Z,102571.03
2022-12-01T10:12:16.905Z,102565.66
2022-12-01T10:14:50.459Z,102563.75
2022-12-01T10:18:05.383Z,102557.41
2022-12-01T10:20:41.386Z,102550.31
2022-12-01T10:23:39.607Z,102552.53
2022-12-01T10:26:31.407Z,102549.06
2022-12-01T10:29:07.051Z,102549.22
2022-12-01T10:32:03.292Z,102545.44
2022-12-01T10:34:42.215Z,102548.47
2022-12-01T10:37:28.050Z,102543.91
2022-12-01T10:40:00.443Z,102543.88
2022-12-01T10:42:39.567Z,102546.25
2022-12-01T10:45:24.206Z,102548.22
2022-12-01T10:48:23.527Z,102542.84
2022-12-01T10:51:13.913Z,102542.25
2022-12-01T10:53:41.051Z,102545.06
2022-12-01T10:56:10.981Z,102538.66
2022-12-01T10:58:50.117Z,102530.56
2022-12-01T11:01:26.850Z,102534.09
2022-12-01T11:04:35.518Z,102530.00
2022-12-01T11:07:04.211Z,102533.84
2022-12-01T11:09:35.896Z,102531.09
2022-12-01T11:12:05.129Z,102532.78
2022-12-01T11:14:47.952Z,102531.66
2022-12-01T11:17:40.173Z,102536.69
2022-12-01T11:20:40.012Z,102530.88
2022-12-01T11:23:10.053Z,102526.50
2022-12-01T11:25:38.108Z,102524.44
2022-12-01T11:28:09.084Z,102529.91
2022-12-01T11:30:36.169Z,102528.97
2022-12-01T11:33:05.668Z,102526.22
2022-12-01T11:35:37.995Z,102521.72
2022-12-01T11:38:29.322Z,102522.94
2022-12-01T11:41:00.894Z,102530.22
2022-12-01T11:43:30.678Z,102523.22
2022-12-01T11:46:03.688Z,102517.69
2022-12-01T11:48:36.869Z,102519.81
2022-12-01T11:51:27.054Z,102526.75
2022-12-01T11:54:28.142Z,102518.50
2022-12-01T11:57:31.869Z,102522.75
2022-12-01T11:59:42.572Z,102519.72
2022-12-01T12:02:53.352Z,102515.91
2022-12-01T12:05:42.780Z,102513.66
2022-12-01T12:08:58.636Z,102517.88
2022-12-01T12:12:02.010Z,102514.44
2022-12-01T12:14:55.145Z,102514.13
2022-12-01T12:17:58.297Z,102512.88
2022-12-01T12:20:41.076Z,102511.78
2022-12-01T12:23:44.851Z,102501.38
2022-12-01T12:26:24.428Z,102504.06
2022-12-01T12:29:03.286Z,102507.38
2022-12-01T12:31:33.069Z,102512.56
2022-12-01T12:34:22.319Z,102504.06
2022-12-01T12:37:41.894Z,102508.19
2022-12-01T12:40:24.719Z,102492.13
2022-12-01T12:43:04.138Z,102503.03
2022-12-01T12:46:11.415Z,102498.19
2022-12-01T12:52:08.116Z,102494.03
2022-12-01T12:55:12.326Z,102498.00
2022-12-01T12:57:58.293Z,102499.47
2022-12-01T13:00:30.086Z,102483.97
2022-12-01T13:03:12.481Z,102502.56
2022-12-01T13:05:52.861Z,102497.41
2022-12-01T13:08:48.282Z,102499.75
2022-12-01T13:11:41.205Z,102495.66
2022-12-01T13:14:39.435Z,102495.25
2022-12-01T13:17:23.417Z,102488.84
2022-12-01T13:19:50.671Z,102481.72
2022-12-01T13:22:24.301Z,102491.25
2022-12-01T13:24:51.344Z,102489.16
2022-12-01T13:27:24.260Z,102486.75
2022-12-01T13:29:54.379Z,102492.94
2022-12-01T13:32:34.864Z,102496.91
2022-12-01T13:35:08.391Z,102491.72
2022-12-01T13:37:38.587Z,102492.22
2022-12-01T13:40:19.399Z,102494.88
2022-12-01T13:45:49.830Z,102506.72
2022-12-01T13:48:40.456Z,102503.47
2022-12-01T13:51:07.572Z,102499.22
2022-12-01T13:53:40.628Z,102505.97
2022-12-01T13:56:39.376Z,102511.22
2022-12-01T14:00:00.727Z,102519.66
2022-12-01T14:02:33.460Z,102513.09
2022-12-01T14:05:22.241Z,102512.03
2022-12-01T14:07:56.750Z,102513.09
2022-12-01T14:10:53.240Z,102515.75
2022-12-01T14:13:22.621Z,102514.97
2022-12-01T14:16:03.849Z,102507.38
2022-12-01T14:18:35.160Z,102510.56
2022-12-01T14:21:08.922Z,102519.50
2022-12-01T14:23:58.807Z,102511.63
2022-12-01T14:26:28.537Z,102507.81
2022-12-01T14:28:57.572Z,102507.41
2022-12-01T14:31:49.823Z,102510.16
2022-12-01T14:34:28.640Z,102504.59
2022-12-01T14:37:03.830Z,102513.59
2022-12-01T14:39:42.422Z,102519.50
2022-12-01T14:42:43.392Z,102518.84
2022-12-01T14:45:22.598Z,102508.38
2022-12-01T14:48:20.143Z,102514.44
2022-12-01T14:51:05.840Z,102505.44
2022-12-01T14:53:36.633Z,102500.72
2022-12-01T14:56:26.033Z,102500.69
2022-12-01T14:59:01.742Z,102502.31
2022-12-01T15:01:40.213Z,102505.09
2022-12-01T15:04:11.659Z,102505.31
2022-12-01T15:06:38.971Z,102507.34
2022-12-01T15:12:07.689Z,102506.06
2022-12-01T15:14:47.961Z,102503.91
2022-12-01T15:17:37.044Z,102499.81
2022-12-01T15:20:31.961Z,102494.88
2022-12-01T15:23:00.182Z,102497.22
2022-12-01T15:25:35.320Z,102495.03
2022-12-01T15:28:22.614Z,102490.00
2022-12-01T15:30:54.816Z,102490.34
2022-12-01T15:33:36.960Z,102490.81
2022-12-01T15:36:05.644Z,102493.06
2022-12-01T15:38:37.258Z,102497.91
2022-12-01T15:41:29.623Z,102484.25
2022-12-01T15:44:08.303Z,102493.13
2022-12-01T15:46:35.187Z,102502.63
2022-12-01T15:49:27.931Z,102496.19
2022-12-01T15:52:10.394Z,102495.88
2022-12-01T15:54:38.266Z,102499.88
2022-12-01T15:57:06.886Z,102501.22
2022-12-01T15:59:44.791Z,102499.19
2022-12-01T16:02:31.929Z,102498.16
2022-12-01T16:05:22.364Z,102501.25
2022-12-01T16:10:41.507Z,102503.16
2022-12-01T16:13:48.899Z,102510.69
2022-12-01T16:17:03.153Z,102511.63
2022-12-01T16:19:35.965Z,102514.03
2022-12-01T16:22:11.790Z,102510.78
2022-12-01T16:24:53.579Z,102512.53
2022-12-01T16:27:31.731Z,102509.63
2022-12-01T16:30:03.573Z,102511.31
2022-12-01T16:32:41.362Z,102508.09
2022-12-01T16:35:30.877Z,102503.91
2022-12-01T16:37:59.238Z,102505.38
2022-12-01T16:40:31.794Z,102509.63
2022-12-01T16:43:00.818Z,102502.84
2022-12-01T16:45:27.675Z,102499.22
2022-12-01T16:48:03.565Z,102501.91
2022-12-01T16:50:33.922Z,102502.19
2022-12-01T16:53:00.900Z,102503.75
2022-12-01T16:55:41.855Z,102503.56
2022-12-01T16:58:09.368Z,102498.91
2022-12-01T17:00:38.621Z,102498.28
2022-12-01T17:03:07.304Z,102494.53
2022-12-01T17:05:34.713Z,102496.97
2022-12-01T17:08:04.200Z,102494.69
2022-12-01T17:10:34.230Z,102491.06
2022-12-01T17:13:05.972Z,102491.22
2022-12-01T17:15:33.072Z,102490.81
2022-12-01T17:18:00.351Z,102500.44
2022-12-01T17:20:29.342Z,102506.00
2022-12-01T17:22:56.369Z,102501.13
2022-12-01T17:25:23.326Z,102503.81
2022-12-01T17:27:52.687Z,102500.28
2022-12-01T17:30:19.629Z,102503.38
2022-12-01T17:32:49.250Z,102504.63
2022-12-01T17:35:19.284Z,102503.06
2022-12-01T17:37:49.270Z,102494.38
2022-12-01T17:40:18.520Z,102501.13
2022-12-01T17:42:50.277Z,102496.63
2022-12-01T17:45:18.975Z,102497.84
2022-12-01T17:47:46.287Z,102502.09
2022-12-01T17:50:13.577Z,102497.91
2022-12-01T17:52:40.964Z,102507.16
2022-12-01T17:55:09.269Z,102504.78
2022-12-01T17:57:36.216Z,102507.03
2022-12-01T18:00:07.567Z,102501.72
2022-12-01T18:02:39.241Z,102507.13
2022-12-01T18:05:06.888Z,102508.31
2022-12-01T18:07:34.044Z,102517.06
2022-12-01T18:10:00.997Z,102515.41
2022-12-01T18:12:28.023Z,102509.56
2022-12-01T18:14:54.990Z,102518.81
2022-12-01T18:17:24.024Z,102525.47
2022-12-01T18:19:54.060Z,102524.63
2022-12-01T18:22:25.621Z,102526.09
2022-12-01T18:24:57.629Z,102524.00
2022-12-01T18:27:27.218Z,102524.03
2022-12-01T18:29:54.219Z,102515.34
2022-12-01T18:32:21.359Z,102522.47
2022-12-01T18:34:48.768Z,102520.78
2022-12-01T18:37:16.082Z,102517.19
2022-12-01T18:39:43.039Z,102520.38
2022-12-01T18:42:10.070Z,102513.34
2022-12-01T18:44:38.879Z,102519.59
2022-12-01T18:47:06.614Z,102520.22
2022-12-01T18:49:33.811Z,102524.56
2022-12-01T18:52:00.808Z,102518.53
2022-12-01T18:54:27.960Z,102517.16
2022-12-01T18:56:58.651Z,102512.91
2022-12-01T18:59:33.278Z,102511.00
2022-12-01T19:02:03.540Z,102517.75
2022-12-01T19:04:32.965Z,102519.78
2022-12-01T19:06:59.995Z,102522.03
2022-12-01T19:09:27.008Z,102521.50
2022-12-01T19:11:59.718Z,102524.56
2022-12-01T19:14:29.283Z,102520.72
2022-12-01T19:16:59.664Z,102525.69
2022-12-01T19:19:33.004Z,102523.59
2022-12-01T19:22:05.124Z,102524.34
2022-12-01T19:24:32.479Z,102520.03
2022-12-01T19:26:59.570Z,102534.06
2022-12-01T19:29:26.626Z,102529.84
2022-12-01T19:31:56.222Z,102534.88
2022-12-01T19:34:23.420Z,102527.22
2022-12-01T19:36:52.354Z,102521.94
2022-12-01T19:39:22.419Z,102520.19
2022-12-01T19:41:49.455Z,102520.72
2022-12-01T19:44:16.823Z,102527.84
2022-12-01T19:46:46.790Z,102525.50
2022-12-01T19:49:14.865Z,102523.16
2022-12-01T19:51:44.571Z,102521.25
2022-12-01T19:54:17.705Z,102519.50
2022-12-01T19:56:44.980Z,102515.94
2022-12-01T19:59:14.374Z,102515.19
2022-12-01T20:01:42.255Z,102509.97
2022-12-01T20:04:11.844Z,102515.78
2022-12-01T20:06:38.984Z,102523.91
2022-12-01T20:09:07.912Z,102513.97
2022-12-01T20:11:37.876Z,102516.28
2022-12-01T20:14:11.718Z,102527.47
2022-12-01T20:16:42.304Z,102524.69
2022-12-01T20:19:14.757Z,102522.25
2022-12-01T20:21:45.271Z,102520.53
2022-12-01T20:24:15.195Z,102527.13
2022-12-01T20:26:51.933Z,102527.13
2022-12-01T20:29:27.233Z,102525.72
2022-12-01T20:31:57.901Z,102518.19
2022-12-01T20:34:37.295Z,102515.84
2022-12-01T20:37:04.810Z,102527.53
2022-12-01T20:39:34.984Z,102518.28
2022-12-01T20:42:03.521Z,102522.13
2022-12-01T20:44:33.082Z,102514.13
2022-12-01T20:47:00.332Z,102513.09
2022-12-01T20:49:33.036Z,102515.25
2022-12-01T20:52:03.035Z,102511.69
2022-12-01T20:54:31.118Z,102506.25
2022-12-01T20:56:59.377Z,102512.47
2022-12-01T20:59:30.240Z,102508.56
2022-12-01T21:02:03.545Z,102513.59
2022-12-01T21:04:30.542Z,102508.06
2022-12-01T21:07:00.271Z,102516.53
2022-12-01T21:09:28.519Z,102514.63
2022-12-01T21:12:17.347Z,102509.09
2022-12-01T21:15:30.303Z,102511.97
2022-12-01T21:18:29.192Z,102509.72
2022-12-01T21:21:07.970Z,102505.63
2022-12-01T21:23:35.401Z,102499.56
2022-12-01T21:26:11.859Z,102498.00
2022-12-01T21:28:38.972Z,102498.16
2022-12-01T21:31:16.175Z,102498.94
2022-12-01T21:33:43.578Z,102499.91
2022-12-01T21:36:22.530Z,102497.47
2022-12-01T21:38:57.928Z,102492.44
2022-12-01T21:41:28.584Z,102491.59
2022-12-01T21:44:21.193Z,102489.19
2022-12-01T21:46:55.244Z,102492.03
2022-12-01T21:49:35.700Z,102487.19
2022-12-01T21:52:09.752Z,102488.56
2022-12-01T21:54:36.653Z,102485.63
2022-12-01T21:57:26.404Z,102479.47
2022-12-01T22:00:01.110Z,102485.19
2022-12-01T22:03:20.452Z,102477.75
2022-12-01T22:06:27.699Z,102485.09
2022-12-01T22:08:50.849Z,102487.47
2022-12-01T22:11:22.252Z,102486.63
2022-12-01T22:14:05.065Z,102487.69
2022-12-01T22:16:34.265Z,102490.69
2022-12-01T22:19:31.971Z,102484.09
2022-12-01T22:22:15.653Z,102482.63
2022-12-01T22:24:54.045Z,102483.81
2022-12-01T22:27:43.956Z,102485.00
2022-12-01T22:30:17.796Z,102486.41
2022-12-01T22:33:00.673Z,102487.44
2022-12-01T22:35:34.493Z,102483.72
2022-12-01T22:38:28.320Z,102483.78
2022-12-01T22:41:06.885Z,102489.47
2022-12-01T22:43:41.816Z,102482.03
2022-12-01T22:46:34.030Z,102479.19
2022-12-01T22:49:10.161Z,102493.75
2022-12-01T22:51:41.488Z,102488.22
2022-12-01T22:54:14.562Z,102492.63
2022-12-01T22:57:02.175Z,102486.16
2022-12-01T22:59:35.229Z,102489.00
2022-12-01T23:02:29.233Z,102490.19
2022-12-01T23:05:01.047Z,102488.94
2022-12-01T23:07:36.901Z,102484.38
2022-12-01T23:10:18.740Z,102478.44
2022-12-01T23:12:49.405Z,102486.50
2022-12-01T23:15:39.000Z,102487.34
2022-12-01T23:18:19.418Z,102484.44
2022-12-01T23:21:07.359Z,102482.53
2022-12-01T23:23:39.386Z,102473.38
2022-12-01T23:26:08.784Z,102473.91
2022-12-01T23:28:39.214Z,102472.59
2022-12-01T23:31:06.765Z,102470.03
2022-12-01T23:33:35.378Z,102461.66
2022-12-01T23:36:24.457Z,102466.50
2022-12-01T23:38:58.990Z,102460.88
2022-12-01T23:41:41.363Z,102463.91
2022-12-01T23:44:39.130Z,102470.69
2022-12-01T23:47:24.158Z,102459.34
2022-12-01T23:50:03.769Z,102461.25
2022-12-01T23:52:37.280Z,102459.03
2022-12-01T23:55:21.865Z,102460.28
2022-12-01T23:57:50.494Z,102461.72
